Nearby METAR Reports

 

NZAA - Auckland Intl Ar, New Zealand
Distance from station: SW 18km
Updated: 06/08/2021 05:30
Mostly cloudy
Mostly cloudy
 Wind from NNE
Wind: NNE 13 km/h
Temperature: 11°C
Dew Point: 10°C
Humidity: 94%
Barometer: 993 hPa
Clouds: Mostly cloudy
Visibility: 10 km
Cloud details: Mostly cloudy 1036 m
2021/08/05 17:30 NZAA 051730Z AUTO 02007KT 9999 BKN034/// 11/10 Q0993 NOSIG
NZWN - Wellington Intl, New Zealand
Distance from station: S 493km
Updated: 06/08/2021 05:30
Overcast
Overcast
 Wind from NNE
Wind: NNE 20 km/h
Temperature: 12°C
Dew Point: 8°C
Humidity: 77%
Barometer: 991 hPa
Clouds: Overcast
Visibility: 10 km
Cloud details: Few Clouds 579 m
Mostly cloudy 1829 m
Overcast 2134 m
2021/08/05 17:30 NZWN 051730Z AUTO 02011KT 9999 FEW019/// BKN060/// OVC070/// 12/08 Q0991 TEMPO 6000 SHRA
 
NZCH - Christchurch Int, New Zealand
Distance from station: SSW 759km
Updated: 06/08/2021 05:30
Light rain, Overcast
Light rain, Overcast
 Wind from SSW
Wind: SSW 24 km/h
Temperature: 7°C
Wind Chill: 3°C
Dew Point: 7°C
Humidity: 100%
Barometer: 992 hPa
Summary: Light rain
Clouds: Overcast
Visibility: 7 km
Cloud details: Mostly cloudy 1494 m
Overcast 1829 m
2021/08/05 17:30 NZCH 051730Z AUTO 21013KT 7000 -RA BKN049/// OVC060/// 07/07 Q0992 BECMG 9999 TEMPO 4000 RA BKN014
YSNF - Norfolk Island A, Australia
Distance from station: NW 1091km
Updated: 06/08/2021 06:00
Overcast
Overcast
 Wind from WSW
Wind: WSW 39 km/h, Gust: 61 km/h
Temperature: 16°C
Dew Point: 11°C
Humidity: 72%
Barometer: 1008 hPa
Clouds: Overcast
Visibility: 10 km
Cloud details: Partly cloudy 884 m
Mostly cloudy 1128 m
Overcast 1311 m
2021/08/05 18:00 YSNF 051800Z AUTO 25021G33KT 9999 // SCT029 BKN037 OVC043 16/11 Q1008